sensor_id;sensor_type;location;lat;lon;timestamp;P1;durP1;ratioP1;P2;durP2;ratioP2
5684;SDS011;2865;53.114;9.130;2023-02-28T00:02:14;14.20;;;7.00;;
5684;SDS011;2865;53.114;9.130;2023-02-28T00:04:39;7.20;;;6.20;;
5684;SDS011;2865;53.114;9.130;2023-02-28T00:07:04;9.30;;;6.20;;
5684;SDS011;2865;53.114;9.130;2023-02-28T00:09:30;9.50;;;6.50;;
5684;SDS011;2865;53.114;9.130;2023-02-28T00:11:55;7.63;;;6.13;;
5684;SDS011;2865;53.114;9.130;2023-02-28T00:14:21;10.93;;;6.67;;
5684;SDS011;2865;53.114;9.130;2023-02-28T00:16:46;10.70;;;6.70;;
5684;SDS011;2865;53.114;9.130;2023-02-28T00:19:11;13.47;;;6.63;;
5684;SDS011;2865;53.114;9.130;2023-02-28T00:21:37;7.77;;;6.20;;
5684;SDS011;2865;53.114;9.130;2023-02-28T00:24:02;6.50;;;5.90;;
5684;SDS011;2865;53.114;9.130;2023-02-28T00:26:28;10.73;;;6.57;;
5684;SDS011;2865;53.114;9.130;2023-02-28T00:28:53;7.23;;;6.13;;
5684;SDS011;2865;53.114;9.130;2023-02-28T00:31:18;9.07;;;6.80;;
5684;SDS011;2865;53.114;9.130;2023-02-28T00:33:44;9.90;;;6.97;;
5684;SDS011;2865;53.114;9.130;2023-02-28T00:36:10;8.33;;;7.53;;
5684;SDS011;2865;53.114;9.130;2023-02-28T00:38:35;9.20;;;6.60;;
5684;SDS011;2865;53.114;9.130;2023-02-28T00:41:00;8.53;;;6.73;;
5684;SDS011;2865;53.114;9.130;2023-02-28T00:43:25;9.43;;;7.00;;
5684;SDS011;2865;53.114;9.130;2023-02-28T00:45:51;10.10;;;7.03;;
5684;SDS011;2865;53.114;9.130;2023-02-28T00:48:16;11.10;;;7.30;;
5684;SDS011;2865;53.114;9.130;2023-02-28T00:50:41;11.60;;;7.03;;
5684;SDS011;2865;53.114;9.130;2023-02-28T00:53:07;9.47;;;6.90;;
5684;SDS011;2865;53.114;9.130;2023-02-28T00:55:32;10.37;;;6.50;;
5684;SDS011;2865;53.114;9.130;2023-02-28T00:57:57;9.90;;;7.23;;
5684;SDS011;2865;53.114;9.130;2023-02-28T01:00:23;8.20;;;7.40;;
5684;SDS011;2865;53.114;9.130;2023-02-28T01:02:48;9.67;;;7.33;;
5684;SDS011;2865;53.114;9.130;2023-02-28T01:05:14;10.50;;;7.83;;
5684;SDS011;2865;53.114;9.130;2023-02-28T01:07:39;8.93;;;6.80;;
5684;SDS011;2865;53.114;9.130;2023-02-28T01:10:05;9.33;;;6.30;;
5684;SDS011;2865;53.114;9.130;2023-02-28T01:12:31;12.27;;;7.30;;
5684;SDS011;2865;53.114;9.130;2023-02-28T01:14:56;9.10;;;6.80;;
5684;SDS011;2865;53.114;9.130;2023-02-28T01:17:22;11.03;;;6.73;;
5684;SDS011;2865;53.114;9.130;2023-02-28T01:19:47;8.07;;;6.43;;
5684;SDS011;2865;53.114;9.130;2023-02-28T01:22:12;14.93;;;7.37;;
5684;SDS011;2865;53.114;9.130;2023-02-28T01:24:38;9.90;;;7.77;;
5684;SDS011;2865;53.114;9.130;2023-02-28T01:27:03;9.10;;;6.63;;
5684;SDS011;2865;53.114;9.130;2023-02-28T01:29:28;11.30;;;7.20;;
5684;SDS011;2865;53.114;9.130;2023-02-28T01:31:54;13.23;;;8.27;;
5684;SDS011;2865;53.114;9.130;2023-02-28T01:34:19;7.47;;;6.77;;
5684;SDS011;2865;53.114;9.130;2023-02-28T01:36:45;10.53;;;7.60;;
5684;SDS011;2865;53.114;9.130;2023-02-28T01:39:10;7.93;;;7.13;;
5684;SDS011;2865;53.114;9.130;2023-02-28T01:41:35;8.30;;;6.67;;
5684;SDS011;2865;53.114;9.130;2023-02-28T01:44:05;9.00;;;7.47;;
5684;SDS011;2865;53.114;9.130;2023-02-28T01:46:31;11.60;;;6.50;;
5684;SDS011;2865;53.114;9.130;2023-02-28T01:48:59;7.10;;;6.40;;
5684;SDS011;2865;53.114;9.130;2023-02-28T01:51:26;7.13;;;6.43;;
5684;SDS011;2865;53.114;9.130;2023-02-28T01:53:53;10.03;;;6.40;;
5684;SDS011;2865;53.114;9.130;2023-02-28T01:56:19;8.60;;;7.00;;
5684;SDS011;2865;53.114;9.130;2023-02-28T01:58:42;6.70;;;6.10;;
5684;SDS011;2865;53.114;9.130;2023-02-28T02:01:08;6.50;;;5.90;;
5684;SDS011;2865;53.114;9.130;2023-02-28T02:03:33;8.80;;;7.17;;
5684;SDS011;2865;53.114;9.130;2023-02-28T02:05:59;10.50;;;6.60;;
5684;SDS011;2865;53.114;9.130;2023-02-28T02:08:25;8.43;;;6.53;;
5684;SDS011;2865;53.114;9.130;2023-02-28T02:10:57;7.43;;;6.77;;
5684;SDS011;2865;53.114;9.130;2023-02-28T02:13:26;8.83;;;6.37;;
5684;SDS011;2865;53.114;9.130;2023-02-28T02:17:15;8.97;;;6.30;;
5684;SDS011;2865;53.114;9.130;2023-02-28T02:18:52;9.20;;;6.53;;
5684;SDS011;2865;53.114;9.130;2023-02-28T02:29:48;7.53;;;6.83;;
5684;SDS011;2865;53.114;9.130;2023-02-28T02:32:34;6.80;;;6.20;;
5684;SDS011;2865;53.114;9.130;2023-02-28T02:35:07;6.70;;;6.10;;
5684;SDS011;2865;53.114;9.130;2023-02-28T02:37:38;13.33;;;6.53;;
5684;SDS011;2865;53.114;9.130;2023-02-28T02:40:22;7.60;;;6.47;;
5684;SDS011;2865;53.114;9.130;2023-02-28T02:42:55;7.60;;;6.87;;
5684;SDS011;2865;53.114;9.130;2023-02-28T02:45:42;8.53;;;6.80;;
5684;SDS011;2865;53.114;9.130;2023-02-28T02:48:14;7.10;;;6.40;;
5684;SDS011;2865;53.114;9.130;2023-02-28T02:50:39;8.93;;;6.60;;
5684;SDS011;2865;53.114;9.130;2023-02-28T02:53:03;8.30;;;7.40;;
5684;SDS011;2865;53.114;9.130;2023-02-28T02:55:29;9.27;;;6.77;;
5684;SDS011;2865;53.114;9.130;2023-02-28T02:57:56;7.77;;;6.40;;
5684;SDS011;2865;53.114;9.130;2023-02-28T03:00:22;8.57;;;6.63;;
5684;SDS011;2865;53.114;9.130;2023-02-28T03:02:46;11.00;;;6.90;;
5684;SDS011;2865;53.114;9.130;2023-02-28T03:05:14;7.10;;;6.03;;
5684;SDS011;2865;53.114;9.130;2023-02-28T03:07:37;6.37;;;5.77;;
5684;SDS011;2865;53.114;9.130;2023-02-28T03:10:02;7.17;;;6.47;;
5684;SDS011;2865;53.114;9.130;2023-02-28T03:12:32;6.63;;;5.57;;
5684;SDS011;2865;53.114;9.130;2023-02-28T03:14:56;8.63;;;6.00;;
5684;SDS011;2865;53.114;9.130;2023-02-28T03:17:27;15.13;;;6.60;;
5684;SDS011;2865;53.114;9.130;2023-02-28T03:20:16;6.93;;;6.27;;
5684;SDS011;2865;53.114;9.130;2023-02-28T03:22:59;6.80;;;5.83;;
5684;SDS011;2865;53.114;9.130;2023-02-28T03:25:27;8.43;;;5.60;;
5684;SDS011;2865;53.114;9.130;2023-02-28T03:28:16;10.40;;;6.20;;
5684;SDS011;2865;53.114;9.130;2023-02-28T03:30:44;10.77;;;5.80;;
5684;SDS011;2865;53.114;9.130;2023-02-28T03:33:10;6.60;;;5.90;;
5684;SDS011;2865;53.114;9.130;2023-02-28T03:35:38;6.83;;;5.40;;
5684;SDS011;2865;53.114;9.130;2023-02-28T03:38:06;6.83;;;6.30;;
5684;SDS011;2865;53.114;9.130;2023-02-28T03:40:30;6.03;;;5.53;;
5684;SDS011;2865;53.114;9.130;2023-02-28T03:42:56;5.67;;;5.20;;
5684;SDS011;2865;53.114;9.130;2023-02-28T03:45:21;5.60;;;5.20;;
5684;SDS011;2865;53.114;9.130;2023-02-28T03:47:46;6.43;;;5.80;;
5684;SDS011;2865;53.114;9.130;2023-02-28T03:50:13;6.80;;;5.57;;
5684;SDS011;2865;53.114;9.130;2023-02-28T03:52:38;7.30;;;5.53;;
5684;SDS011;2865;53.114;9.130;2023-02-28T03:55:03;6.50;;;5.47;;
5684;SDS011;2865;53.114;9.130;2023-02-28T03:57:30;7.23;;;6.40;;
5684;SDS011;2865;53.114;9.130;2023-02-28T03:59:58;5.90;;;5.40;;
5684;SDS011;2865;53.114;9.130;2023-02-28T04:02:22;14.37;;;6.23;;
5684;SDS011;2865;53.114;9.130;2023-02-28T04:04:47;6.40;;;5.80;;
5684;SDS011;2865;53.114;9.130;2023-02-28T04:07:13;6.13;;;5.60;;
5684;SDS011;2865;53.114;9.130;2023-02-28T04:09:38;5.60;;;5.10;;
5684;SDS011;2865;53.114;9.130;2023-02-28T04:12:03;6.30;;;5.73;;
5684;SDS011;2865;53.114;9.130;2023-02-28T04:14:29;5.93;;;5.53;;
5684;SDS011;2865;53.114;9.130;2023-02-28T04:16:54;5.90;;;5.40;;
5684;SDS011;2865;53.114;9.130;2023-02-28T04:19:20;7.93;;;5.80;;
5684;SDS011;2865;53.114;9.130;2023-02-28T04:21:47;6.30;;;5.70;;
5684;SDS011;2865;53.114;9.130;2023-02-28T04:24:12;6.43;;;6.00;;
5684;SDS011;2865;53.114;9.130;2023-02-28T04:26:37;7.77;;;5.60;;
5684;SDS011;2865;53.114;9.130;2023-02-28T04:29:04;6.90;;;6.23;;
5684;SDS011;2865;53.114;9.130;2023-02-28T04:31:28;6.90;;;6.20;;
5684;SDS011;2865;53.114;9.130;2023-02-28T04:33:54;6.53;;;6.03;;
5684;SDS011;2865;53.114;9.130;2023-02-28T04:36:19;7.17;;;6.53;;
5684;SDS011;2865;53.114;9.130;2023-02-28T04:38:45;6.97;;;6.30;;
5684;SDS011;2865;53.114;9.130;2023-02-28T04:41:10;7.67;;;6.37;;
5684;SDS011;2865;53.114;9.130;2023-02-28T04:43:35;6.87;;;5.67;;
5684;SDS011;2865;53.114;9.130;2023-02-28T04:46:02;6.83;;;6.23;;
5684;SDS011;2865;53.114;9.130;2023-02-28T04:48:27;8.20;;;6.53;;
5684;SDS011;2865;53.114;9.130;2023-02-28T04:50:52;11.03;;;6.53;;
5684;SDS011;2865;53.114;9.130;2023-02-28T04:53:17;6.50;;;6.00;;
5684;SDS011;2865;53.114;9.130;2023-02-28T04:55:42;6.13;;;5.63;;
5684;SDS011;2865;53.114;9.130;2023-02-28T04:58:08;6.57;;;5.30;;
5684;SDS011;2865;53.114;9.130;2023-02-28T05:00:33;8.70;;;6.07;;
5684;SDS011;2865;53.114;9.130;2023-02-28T05:02:59;7.57;;;5.80;;
5684;SDS011;2865;53.114;9.130;2023-02-28T05:05:24;9.00;;;7.33;;
5684;SDS011;2865;53.114;9.130;2023-02-28T05:07:49;8.13;;;5.60;;
5684;SDS011;2865;53.114;9.130;2023-02-28T05:10:15;13.50;;;6.50;;
5684;SDS011;2865;53.114;9.130;2023-02-28T05:12:41;6.95;;;6.25;;
5684;SDS011;2865;53.114;9.130;2023-02-28T05:15:07;6.70;;;6.10;;
5684;SDS011;2865;53.114;9.130;2023-02-28T05:17:33;9.98;;;6.32;;
5684;SDS011;2865;53.114;9.130;2023-02-28T05:19:58;6.83;;;6.23;;
5684;SDS011;2865;53.114;9.130;2023-02-28T05:22:23;6.47;;;5.97;;
5684;SDS011;2865;53.114;9.130;2023-02-28T05:24:49;7.53;;;6.83;;
5684;SDS011;2865;53.114;9.130;2023-02-28T05:27:14;6.60;;;6.07;;
5684;SDS011;2865;53.114;9.130;2023-02-28T05:29:39;9.20;;;6.30;;
5684;SDS011;2865;53.114;9.130;2023-02-28T05:32:08;8.07;;;6.07;;
5684;SDS011;2865;53.114;9.130;2023-02-28T05:34:33;6.78;;;6.28;;
5684;SDS011;2865;53.114;9.130;2023-02-28T05:36:59;6.93;;;6.23;;
5684;SDS011;2865;53.114;9.130;2023-02-28T05:39:24;8.33;;;6.50;;
5684;SDS011;2865;53.114;9.130;2023-02-28T05:41:49;7.73;;;6.97;;
5684;SDS011;2865;53.114;9.130;2023-02-28T05:44:15;6.80;;;6.10;;
5684;SDS011;2865;53.114;9.130;2023-02-28T05:46:40;7.83;;;7.20;;
5684;SDS011;2865;53.114;9.130;2023-02-28T05:49:05;7.80;;;7.03;;
5684;SDS011;2865;53.114;9.130;2023-02-28T05:51:31;8.70;;;7.47;;
5684;SDS011;2865;53.114;9.130;2023-02-28T05:53:58;8.60;;;7.03;;
5684;SDS011;2865;53.114;9.130;2023-02-28T05:56:21;8.20;;;7.50;;
5684;SDS011;2865;53.114;9.130;2023-02-28T05:58:47;8.67;;;7.87;;
5684;SDS011;2865;53.114;9.130;2023-02-28T06:01:19;15.00;;;9.50;;
5684;SDS011;2865;53.114;9.130;2023-02-28T06:03:43;11.12;;;8.00;;
5684;SDS011;2865;53.114;9.130;2023-02-28T06:06:08;11.77;;;7.77;;
5684;SDS011;2865;53.114;9.130;2023-02-28T06:08:34;10.70;;;7.17;;
5684;SDS011;2865;53.114;9.130;2023-02-28T06:11:02;7.33;;;6.63;;
5684;SDS011;2865;53.114;9.130;2023-02-28T06:13:25;7.83;;;7.23;;
5684;SDS011;2865;53.114;9.130;2023-02-28T06:15:50;6.97;;;6.27;;
5684;SDS011;2865;53.114;9.130;2023-02-28T06:18:15;10.10;;;7.20;;
5684;SDS011;2865;53.114;9.130;2023-02-28T06:20:41;7.73;;;6.83;;
5684;SDS011;2865;53.114;9.130;2023-02-28T06:23:06;8.90;;;7.70;;
5684;SDS011;2865;53.114;9.130;2023-02-28T06:25:31;7.93;;;7.13;;
5684;SDS011;2865;53.114;9.130;2023-02-28T06:27:57;7.67;;;6.83;;
5684;SDS011;2865;53.114;9.130;2023-02-28T06:30:22;8.30;;;7.50;;
5684;SDS011;2865;53.114;9.130;2023-02-28T06:32:48;7.23;;;6.63;;
5684;SDS011;2865;53.114;9.130;2023-02-28T06:35:13;7.53;;;6.83;;
5684;SDS011;2865;53.114;9.130;2023-02-28T06:37:39;7.30;;;6.70;;
5684;SDS011;2865;53.114;9.130;2023-02-28T06:40:04;8.10;;;7.30;;
5684;SDS011;2865;53.114;9.130;2023-02-28T06:42:30;8.88;;;7.10;;
5684;SDS011;2865;53.114;9.130;2023-02-28T06:44:56;8.17;;;7.37;;
5684;SDS011;2865;53.114;9.130;2023-02-28T06:47:21;9.67;;;7.40;;
5684;SDS011;2865;53.114;9.130;2023-02-28T06:49:46;8.33;;;7.50;;
5684;SDS011;2865;53.114;9.130;2023-02-28T06:52:12;8.50;;;7.63;;
5684;SDS011;2865;53.114;9.130;2023-02-28T06:54:37;7.97;;;7.23;;
5684;SDS011;2865;53.114;9.130;2023-02-28T06:57:03;10.67;;;7.00;;
5684;SDS011;2865;53.114;9.130;2023-02-28T06:59:28;13.33;;;7.03;;
5684;SDS011;2865;53.114;9.130;2023-02-28T07:01:53;8.80;;;7.00;;
5684;SDS011;2865;53.114;9.130;2023-02-28T07:04:19;8.10;;;6.97;;
5684;SDS011;2865;53.114;9.130;2023-02-28T07:06:44;11.60;;;7.20;;
5684;SDS011;2865;53.114;9.130;2023-02-28T07:09:09;9.30;;;6.90;;
5684;SDS011;2865;53.114;9.130;2023-02-28T07:11:35;10.40;;;7.20;;
5684;SDS011;2865;53.114;9.130;2023-02-28T07:14:00;6.47;;;5.93;;
5684;SDS011;2865;53.114;9.130;2023-02-28T07:16:26;5.73;;;5.33;;
5684;SDS011;2865;53.114;9.130;2023-02-28T07:18:53;6.50;;;6.00;;
5684;SDS011;2865;53.114;9.130;2023-02-28T07:21:18;6.10;;;5.60;;
5684;SDS011;2865;53.114;9.130;2023-02-28T07:23:43;6.83;;;6.23;;
5684;SDS011;2865;53.114;9.130;2023-02-28T07:26:10;7.63;;;6.47;;
5684;SDS011;2865;53.114;9.130;2023-02-28T07:28:34;15.90;;;6.10;;
5684;SDS011;2865;53.114;9.130;2023-02-28T07:31:03;6.23;;;5.73;;
5684;SDS011;2865;53.114;9.130;2023-02-28T07:33:27;6.60;;;5.90;;
5684;SDS011;2865;53.114;9.130;2023-02-28T07:35:59;9.47;;;6.43;;
5684;SDS011;2865;53.114;9.130;2023-02-28T07:38:18;9.53;;;6.40;;
5684;SDS011;2865;53.114;9.130;2023-02-28T07:40:43;6.63;;;5.93;;
5684;SDS011;2865;53.114;9.130;2023-02-28T07:43:09;13.60;;;5.90;;
5684;SDS011;2865;53.114;9.130;2023-02-28T07:45:34;9.50;;;6.17;;
5684;SDS011;2865;53.114;9.130;2023-02-28T07:47:59;7.97;;;6.40;;
5684;SDS011;2865;53.114;9.130;2023-02-28T07:50:25;6.00;;;5.20;;
5684;SDS011;2865;53.114;9.130;2023-02-28T07:52:50;6.20;;;5.57;;
5684;SDS011;2865;53.114;9.130;2023-02-28T07:55:16;6.23;;;5.70;;
5684;SDS011;2865;53.114;9.130;2023-02-28T07:57:41;8.00;;;6.10;;
5684;SDS011;2865;53.114;9.130;2023-02-28T08:00:08;8.33;;;6.00;;
5684;SDS011;2865;53.114;9.130;2023-02-28T08:02:33;5.70;;;5.30;;
5684;SDS011;2865;53.114;9.130;2023-02-28T08:04:59;6.27;;;5.77;;
5684;SDS011;2865;53.114;9.130;2023-02-28T08:07:24;5.40;;;4.90;;
5684;SDS011;2865;53.114;9.130;2023-02-28T08:09:49;6.50;;;5.77;;
5684;SDS011;2865;53.114;9.130;2023-02-28T08:12:15;5.97;;;5.43;;
5684;SDS011;2865;53.114;9.130;2023-02-28T08:14:41;5.50;;;5.07;;
5684;SDS011;2865;53.114;9.130;2023-02-28T08:17:06;6.00;;;5.50;;
5684;SDS011;2865;53.114;9.130;2023-02-28T08:19:31;5.50;;;4.77;;
5684;SDS011;2865;53.114;9.130;2023-02-28T08:21:57;4.93;;;4.43;;
5684;SDS011;2865;53.114;9.130;2023-02-28T08:24:22;5.87;;;5.33;;
5684;SDS011;2865;53.114;9.130;2023-02-28T08:26:48;5.47;;;4.80;;
5684;SDS011;2865;53.114;9.130;2023-02-28T08:29:13;6.97;;;5.37;;
5684;SDS011;2865;53.114;9.130;2023-02-28T08:31:39;5.70;;;4.70;;
5684;SDS011;2865;53.114;9.130;2023-02-28T08:34:06;5.53;;;5.03;;
5684;SDS011;2865;53.114;9.130;2023-02-28T08:36:30;5.97;;;4.90;;
5684;SDS011;2865;53.114;9.130;2023-02-28T08:38:56;6.03;;;5.40;;
5684;SDS011;2865;53.114;9.130;2023-02-28T08:41:21;7.60;;;5.93;;
5684;SDS011;2865;53.114;9.130;2023-02-28T08:43:46;5.07;;;4.57;;
5684;SDS011;2865;53.114;9.130;2023-02-28T08:46:12;5.27;;;4.57;;
5684;SDS011;2865;53.114;9.130;2023-02-28T08:48:37;5.63;;;5.07;;
5684;SDS011;2865;53.114;9.130;2023-02-28T08:51:06;7.00;;;4.97;;
5684;SDS011;2865;53.114;9.130;2023-02-28T08:53:31;6.40;;;5.47;;
5684;SDS011;2865;53.114;9.130;2023-02-28T08:55:57;5.33;;;4.77;;
5684;SDS011;2865;53.114;9.130;2023-02-28T08:58:26;5.10;;;4.60;;
5684;SDS011;2865;53.114;9.130;2023-02-28T09:00:52;4.80;;;4.30;;
5684;SDS011;2865;53.114;9.130;2023-02-28T09:03:17;5.10;;;4.60;;
5684;SDS011;2865;53.114;9.130;2023-02-28T09:05:51;5.73;;;5.10;;
5684;SDS011;2865;53.114;9.130;2023-02-28T09:08:13;5.17;;;4.47;;
5684;SDS011;2865;53.114;9.130;2023-02-28T09:10:39;8.93;;;4.37;;
5684;SDS011;2865;53.114;9.130;2023-02-28T09:13:05;4.80;;;4.40;;
5684;SDS011;2865;53.114;9.130;2023-02-28T09:15:30;4.27;;;3.90;;
5684;SDS011;2865;53.114;9.130;2023-02-28T09:17:55;4.50;;;4.10;;
5684;SDS011;2865;53.114;9.130;2023-02-28T09:20:20;4.43;;;4.03;;
5684;SDS011;2865;53.114;9.130;2023-02-28T09:22:46;4.47;;;4.03;;
5684;SDS011;2865;53.114;9.130;2023-02-28T09:25:11;6.20;;;3.73;;
5684;SDS011;2865;53.114;9.130;2023-02-28T09:27:37;5.00;;;3.63;;
5684;SDS011;2865;53.114;9.130;2023-02-28T09:30:02;3.67;;;3.37;;
5684;SDS011;2865;53.114;9.130;2023-02-28T09:32:28;3.93;;;3.53;;
5684;SDS011;2865;53.114;9.130;2023-02-28T09:34:53;4.23;;;3.13;;
5684;SDS011;2865;53.114;9.130;2023-02-28T09:37:19;4.57;;;4.17;;
5684;SDS011;2865;53.114;9.130;2023-02-28T09:39:44;4.13;;;3.53;;
5684;SDS011;2865;53.114;9.130;2023-02-28T09:42:13;4.63;;;3.50;;
5684;SDS011;2865;53.114;9.130;2023-02-28T09:44:36;3.77;;;3.47;;
5684;SDS011;2865;53.114;9.130;2023-02-28T09:47:10;3.93;;;3.50;;
5684;SDS011;2865;53.114;9.130;2023-02-28T09:49:34;3.27;;;2.97;;
5684;SDS011;2865;53.114;9.130;2023-02-28T09:51:59;4.00;;;3.50;;
5684;SDS011;2865;53.114;9.130;2023-02-28T09:54:24;3.40;;;3.10;;
5684;SDS011;2865;53.114;9.130;2023-02-28T09:56:50;2.93;;;2.80;;
5684;SDS011;2865;53.114;9.130;2023-02-28T09:59:53;6.63;;;3.27;;
5684;SDS011;2865;53.114;9.130;2023-02-28T10:02:10;4.80;;;3.30;;
5684;SDS011;2865;53.114;9.130;2023-02-28T10:04:46;3.57;;;3.27;;
5684;SDS011;2865;53.114;9.130;2023-02-28T10:09:57;3.17;;;2.97;;
5684;SDS011;2865;53.114;9.130;2023-02-28T10:12:22;4.27;;;3.10;;
5684;SDS011;2865;53.114;9.130;2023-02-28T10:14:49;3.13;;;2.83;;
5684;SDS011;2865;53.114;9.130;2023-02-28T10:17:14;5.43;;;2.77;;
5684;SDS011;2865;53.114;9.130;2023-02-28T10:19:47;2.47;;;2.33;;
5684;SDS011;2865;53.114;9.130;2023-02-28T10:22:11;2.50;;;2.30;;
5684;SDS011;2865;53.114;9.130;2023-02-28T10:24:41;2.40;;;2.30;;
5684;SDS011;2865;53.114;9.130;2023-02-28T10:27:13;2.40;;;2.20;;
5684;SDS011;2865;53.114;9.130;2023-02-28T10:29:38;2.40;;;2.20;;
5684;SDS011;2865;53.114;9.130;2023-02-28T10:32:04;4.10;;;2.13;;
5684;SDS011;2865;53.114;9.130;2023-02-28T10:34:29;2.23;;;2.13;;
5684;SDS011;2865;53.114;9.130;2023-02-28T10:36:55;2.13;;;2.03;;
5684;SDS011;2865;53.114;9.130;2023-02-28T10:39:33;2.70;;;2.50;;
5684;SDS011;2865;53.114;9.130;2023-02-28T10:41:53;2.70;;;2.50;;
5684;SDS011;2865;53.114;9.130;2023-02-28T10:44:21;2.27;;;2.17;;
5684;SDS011;2865;53.114;9.130;2023-02-28T10:46:45;2.63;;;2.40;;
5684;SDS011;2865;53.114;9.130;2023-02-28T10:49:14;3.00;;;2.43;;
5684;SDS011;2865;53.114;9.130;2023-02-28T10:51:38;2.50;;;2.30;;
5684;SDS011;2865;53.114;9.130;2023-02-28T10:54:03;2.23;;;2.13;;
5684;SDS011;2865;53.114;9.130;2023-02-28T10:56:29;2.30;;;2.20;;
5684;SDS011;2865;53.114;9.130;2023-02-28T10:58:55;2.70;;;2.50;;
5684;SDS011;2865;53.114;9.130;2023-02-28T11:01:22;3.33;;;3.07;;
5684;SDS011;2865;53.114;9.130;2023-02-28T11:03:48;2.80;;;2.60;;
5684;SDS011;2865;53.114;9.130;2023-02-28T11:06:15;2.50;;;2.30;;
5684;SDS011;2865;53.114;9.130;2023-02-28T11:08:44;2.63;;;2.40;;
5684;SDS011;2865;53.114;9.130;2023-02-28T11:11:08;2.13;;;2.03;;
5684;SDS011;2865;53.114;9.130;2023-02-28T11:13:35;4.67;;;2.40;;
5684;SDS011;2865;53.114;9.130;2023-02-28T11:16:00;2.70;;;2.50;;
5684;SDS011;2865;53.114;9.130;2023-02-28T11:18:29;2.73;;;2.53;;
5684;SDS011;2865;53.114;9.130;2023-02-28T11:20:54;2.53;;;2.30;;
5684;SDS011;2865;53.114;9.130;2023-02-28T11:23:19;2.60;;;2.40;;
5684;SDS011;2865;53.114;9.130;2023-02-28T11:25:47;2.50;;;2.30;;
5684;SDS011;2865;53.114;9.130;2023-02-28T11:30:49;3.27;;;3.07;;
5684;SDS011;2865;53.114;9.130;2023-02-28T11:35:49;2.90;;;2.17;;
5684;SDS011;2865;53.114;9.130;2023-02-28T11:38:14;2.23;;;2.10;;
5684;SDS011;2865;53.114;9.130;2023-02-28T11:40:43;2.43;;;2.20;;
5684;SDS011;2865;53.114;9.130;2023-02-28T11:43:18;2.87;;;2.67;;
5684;SDS011;2865;53.114;9.130;2023-02-28T11:45:52;2.60;;;2.40;;
5684;SDS011;2865;53.114;9.130;2023-02-28T11:51:21;2.50;;;2.20;;
5684;SDS011;2865;53.114;9.130;2023-02-28T11:53:50;2.37;;;2.17;;
5684;SDS011;2865;53.114;9.130;2023-02-28T11:56:23;2.13;;;1.93;;
5684;SDS011;2865;53.114;9.130;2023-02-28T11:58:53;2.97;;;2.17;;
5684;SDS011;2865;53.114;9.130;2023-02-28T12:01:25;3.40;;;2.10;;
5684;SDS011;2865;53.114;9.130;2023-02-28T12:03:58;2.33;;;2.23;;
5684;SDS011;2865;53.114;9.130;2023-02-28T12:09:28;3.77;;;2.60;;
5684;SDS011;2865;53.114;9.130;2023-02-28T12:12:07;3.20;;;2.90;;
5684;SDS011;2865;53.114;9.130;2023-02-28T12:14:39;3.43;;;2.10;;
5684;SDS011;2865;53.114;9.130;2023-02-28T12:17:00;2.93;;;2.10;;
5684;SDS011;2865;53.114;9.130;2023-02-28T12:24:51;3.27;;;2.23;;
5684;SDS011;2865;53.114;9.130;2023-02-28T12:27:21;2.80;;;2.60;;
5684;SDS011;2865;53.114;9.130;2023-02-28T12:29:50;2.27;;;2.17;;
5684;SDS011;2865;53.114;9.130;2023-02-28T12:32:18;2.20;;;2.10;;
5684;SDS011;2865;53.114;9.130;2023-02-28T12:34:44;4.20;;;2.00;;
5684;SDS011;2865;53.114;9.130;2023-02-28T12:37:12;2.60;;;2.40;;
5684;SDS011;2865;53.114;9.130;2023-02-28T12:39:37;2.60;;;2.40;;
5684;SDS011;2865;53.114;9.130;2023-02-28T12:42:03;2.50;;;2.30;;
5684;SDS011;2865;53.114;9.130;2023-02-28T12:44:30;2.40;;;2.17;;
5684;SDS011;2865;53.114;9.130;2023-02-28T12:46:59;2.80;;;2.60;;
5684;SDS011;2865;53.114;9.130;2023-02-28T12:49:25;2.60;;;2.40;;
5684;SDS011;2865;53.114;9.130;2023-02-28T12:51:59;2.23;;;2.13;;
5684;SDS011;2865;53.114;9.130;2023-02-28T12:54:25;2.60;;;2.40;;
5684;SDS011;2865;53.114;9.130;2023-02-28T12:59:58;2.57;;;2.37;;
5684;SDS011;2865;53.114;9.130;2023-02-28T13:02:32;2.30;;;2.20;;
5684;SDS011;2865;53.114;9.130;2023-02-28T13:05:00;2.30;;;2.20;;
5684;SDS011;2865;53.114;9.130;2023-02-28T13:07:34;2.10;;;2.00;;
5684;SDS011;2865;53.114;9.130;2023-02-28T13:09:57;2.27;;;2.10;;
5684;SDS011;2865;53.114;9.130;2023-02-28T13:12:22;2.37;;;2.27;;
5684;SDS011;2865;53.114;9.130;2023-02-28T13:14:47;2.80;;;2.60;;
5684;SDS011;2865;53.114;9.130;2023-02-28T13:17:14;2.60;;;2.40;;
5684;SDS011;2865;53.114;9.130;2023-02-28T13:19:42;2.40;;;2.30;;
5684;SDS011;2865;53.114;9.130;2023-02-28T13:24:42;2.63;;;2.53;;
5684;SDS011;2865;53.114;9.130;2023-02-28T13:27:11;2.73;;;2.63;;
5684;SDS011;2865;53.114;9.130;2023-02-28T13:29:37;2.20;;;2.00;;
5684;SDS011;2865;53.114;9.130;2023-02-28T13:37:42;2.23;;;2.13;;
5684;SDS011;2865;53.114;9.130;2023-02-28T13:40:26;2.60;;;2.40;;
5684;SDS011;2865;53.114;9.130;2023-02-28T13:42:47;3.23;;;2.43;;
5684;SDS011;2865;53.114;9.130;2023-02-28T13:45:21;2.40;;;2.27;;
5684;SDS011;2865;53.114;9.130;2023-02-28T13:47:51;3.03;;;2.37;;
5684;SDS011;2865;53.114;9.130;2023-02-28T13:50:31;3.17;;;2.63;;
5684;SDS011;2865;53.114;9.130;2023-02-28T13:53:12;3.17;;;2.70;;
5684;SDS011;2865;53.114;9.130;2023-02-28T13:56:21;2.60;;;2.50;;
5684;SDS011;2865;53.114;9.130;2023-02-28T14:06:23;2.30;;;2.20;;
5684;SDS011;2865;53.114;9.130;2023-02-28T14:11:24;2.70;;;2.50;;
5684;SDS011;2865;53.114;9.130;2023-02-28T14:13:48;2.43;;;2.30;;
5684;SDS011;2865;53.114;9.130;2023-02-28T14:16:14;2.70;;;2.50;;
5684;SDS011;2865;53.114;9.130;2023-02-28T14:18:40;2.50;;;2.30;;
5684;SDS011;2865;53.114;9.130;2023-02-28T14:21:09;2.70;;;2.07;;
5684;SDS011;2865;53.114;9.130;2023-02-28T14:23:45;2.90;;;2.70;;
5684;SDS011;2865;53.114;9.130;2023-02-28T14:26:32;2.83;;;2.67;;
5684;SDS011;2865;53.114;9.130;2023-02-28T14:32:01;3.97;;;2.40;;
5684;SDS011;2865;53.114;9.130;2023-02-28T14:34:35;2.33;;;2.23;;
5684;SDS011;2865;53.114;9.130;2023-02-28T14:36:57;2.80;;;2.57;;
5684;SDS011;2865;53.114;9.130;2023-02-28T14:39:22;3.13;;;2.50;;
5684;SDS011;2865;53.114;9.130;2023-02-28T14:41:48;2.77;;;2.53;;
5684;SDS011;2865;53.114;9.130;2023-02-28T14:44:19;2.60;;;2.40;;
5684;SDS011;2865;53.114;9.130;2023-02-28T14:46:48;3.07;;;2.13;;
5684;SDS011;2865;53.114;9.130;2023-02-28T14:49:17;2.23;;;2.13;;
5684;SDS011;2865;53.114;9.130;2023-02-28T14:51:47;2.60;;;2.40;;
5684;SDS011;2865;53.114;9.130;2023-02-28T14:54:13;2.37;;;2.27;;
5684;SDS011;2865;53.114;9.130;2023-02-28T14:56:37;2.73;;;2.63;;
5684;SDS011;2865;53.114;9.130;2023-02-28T14:59:02;3.20;;;3.00;;
5684;SDS011;2865;53.114;9.130;2023-02-28T15:01:28;2.57;;;2.37;;
5684;SDS011;2865;53.114;9.130;2023-02-28T15:03:57;2.50;;;2.30;;
5684;SDS011;2865;53.114;9.130;2023-02-28T15:06:22;2.63;;;2.43;;
5684;SDS011;2865;53.114;9.130;2023-02-28T15:08:47;2.60;;;2.40;;
5684;SDS011;2865;53.114;9.130;2023-02-28T15:11:19;2.30;;;2.20;;
5684;SDS011;2865;53.114;9.130;2023-02-28T15:13:46;3.63;;;3.33;;
5684;SDS011;2865;53.114;9.130;2023-02-28T15:16:13;2.90;;;2.70;;
5684;SDS011;2865;53.114;9.130;2023-02-28T15:21:11;2.53;;;2.40;;
5684;SDS011;2865;53.114;9.130;2023-02-28T15:23:36;5.80;;;2.70;;
5684;SDS011;2865;53.114;9.130;2023-02-28T15:26:01;2.53;;;2.33;;
5684;SDS011;2865;53.114;9.130;2023-02-28T15:28:27;2.73;;;2.53;;
5684;SDS011;2865;53.114;9.130;2023-02-28T15:30:53;2.53;;;2.33;;
5684;SDS011;2865;53.114;9.130;2023-02-28T15:33:19;2.63;;;2.43;;
5684;SDS011;2865;53.114;9.130;2023-02-28T15:35:43;4.60;;;2.63;;
5684;SDS011;2865;53.114;9.130;2023-02-28T15:38:13;2.37;;;2.20;;
5684;SDS011;2865;53.114;9.130;2023-02-28T15:40:37;2.47;;;2.27;;
5684;SDS011;2865;53.114;9.130;2023-02-28T15:43:23;2.70;;;2.50;;
5684;SDS011;2865;53.114;9.130;2023-02-28T15:45:45;2.53;;;2.40;;
5684;SDS011;2865;53.114;9.130;2023-02-28T15:48:16;2.63;;;2.43;;
5684;SDS011;2865;53.114;9.130;2023-02-28T15:50:49;2.60;;;2.40;;
5684;SDS011;2865;53.114;9.130;2023-02-28T15:53:17;3.00;;;2.80;;
5684;SDS011;2865;53.114;9.130;2023-02-28T15:55:41;2.80;;;2.60;;
5684;SDS011;2865;53.114;9.130;2023-02-28T15:58:08;2.90;;;2.70;;
5684;SDS011;2865;53.114;9.130;2023-02-28T16:00:32;4.47;;;3.30;;
5684;SDS011;2865;53.114;9.130;2023-02-28T16:02:58;3.20;;;3.00;;
5684;SDS011;2865;53.114;9.130;2023-02-28T16:05:27;2.80;;;2.60;;
5684;SDS011;2865;53.114;9.130;2023-02-28T16:07:53;2.90;;;2.70;;
5684;SDS011;2865;53.114;9.130;2023-02-28T16:10:18;3.20;;;2.80;;